createdAt,value
2023-03-14T00:00:08.000Z,7.5
2023-03-14T00:00:38.000Z,7.277777777777778
2023-03-14T00:01:13.000Z,7.277777777777778
2023-03-14T00:01:35.000Z,7.277777777777778
2023-03-14T00:01:58.000Z,7.277777777777778
2023-03-14T00:02:33.000Z,7.277777777777778
2023-03-14T00:03:03.000Z,7.277777777777778
2023-03-14T00:03:33.000Z,7.277777777777778
2023-03-14T00:04:08.000Z,7.3888888888888875
2023-03-14T00:04:33.000Z,7.3888888888888875
2023-03-14T00:05:02.000Z,7.3888888888888875
2023-03-14T00:05:29.000Z,7.3888888888888875
2023-03-14T00:05:56.000Z,7.3888888888888875
2023-03-14T00:06:22.000Z,7.3888888888888875
2023-03-14T00:06:49.000Z,7.277777777777778
2023-03-14T00:07:16.000Z,7.277777777777778
2023-03-14T00:07:42.000Z,7.277777777777778
2023-03-14T00:08:07.000Z,7.277777777777778
2023-03-14T00:08:33.000Z,7.277777777777778
2023-03-14T00:09:02.000Z,7.277777777777778
2023-03-14T00:09:29.000Z,7.3888888888888875
2023-03-14T00:09:56.000Z,7.3888888888888875
2023-03-14T00:10:22.000Z,7.3888888888888875
2023-03-14T00:10:49.000Z,7.3888888888888875
2023-03-14T00:11:16.000Z,7.3888888888888875
2023-03-14T00:11:42.000Z,7.3888888888888875
2023-03-14T00:12:07.000Z,7.277777777777778
2023-03-14T00:12:33.000Z,7.277777777777778
2023-03-14T00:12:55.000Z,7.277777777777778
2023-03-14T00:13:28.000Z,7.5
2023-03-14T00:13:58.000Z,7.3888888888888875
2023-03-14T00:14:33.000Z,7.3888888888888875
2023-03-14T00:15:03.000Z,7.3888888888888875
2023-03-14T00:15:33.000Z,7.3888888888888875
2023-03-14T00:16:08.000Z,7.222222222222222
2023-03-14T00:16:38.000Z,7.3888888888888875
2023-03-14T00:17:13.000Z,7.3888888888888875
2023-03-14T00:17:34.000Z,7.3888888888888875
2023-03-14T00:17:58.000Z,7.3888888888888875
2023-03-14T00:18:33.000Z,7.3888888888888875
2023-03-14T00:19:12.000Z,7.3888888888888875
2023-03-14T00:19:42.000Z,7.3888888888888875
2023-03-14T00:20:07.000Z,7.3888888888888875
2023-03-14T00:20:33.000Z,7.277777777777778
2023-03-14T00:20:53.000Z,7.277777777777778
2023-03-14T00:21:28.000Z,7.11111111111111
2023-03-14T00:21:58.000Z,7.222222222222222
2023-03-14T00:22:33.000Z,7.222222222222222
2023-03-14T00:23:03.000Z,7.222222222222222
2023-03-14T00:23:33.000Z,7.222222222222222
2023-03-14T00:24:08.000Z,7.222222222222222
2023-03-14T00:24:38.000Z,7.222222222222222
2023-03-14T00:25:13.000Z,7.222222222222222
2023-03-14T00:25:35.000Z,7.3888888888888875
2023-03-14T00:25:58.000Z,7.222222222222222
2023-03-14T00:26:32.000Z,7.222222222222222
2023-03-14T00:27:00.000Z,7.3888888888888875
2023-03-14T00:27:27.000Z,7.222222222222222
2023-03-14T00:27:53.000Z,7.222222222222222
2023-03-14T00:28:23.000Z,7.222222222222222
2023-03-14T00:28:53.000Z,7.222222222222222
2023-03-14T00:29:28.000Z,7.222222222222222
2023-03-14T00:29:58.000Z,7.222222222222222
2023-03-14T00:30:33.000Z,7.3888888888888875
2023-03-14T00:31:03.000Z,7.277777777777778
2023-03-14T00:31:33.000Z,7.11111111111111
2023-03-14T00:32:09.000Z,7.277777777777778
2023-03-14T00:32:38.000Z,7.277777777777778
2023-03-14T00:33:13.000Z,7.222222222222222
2023-03-14T00:33:44.000Z,7.222222222222222
2023-03-14T00:34:18.000Z,7.11111111111111
2023-03-14T00:34:48.000Z,7.11111111111111
2023-03-14T00:35:18.000Z,7.11111111111111
2023-03-14T00:35:53.000Z,7.11111111111111
2023-03-14T00:36:23.000Z,7.222222222222222
2023-03-14T00:36:53.000Z,7.222222222222222
2023-03-14T00:37:28.000Z,7.222222222222222
2023-03-14T00:37:58.000Z,7.277777777777778
2023-03-14T00:38:33.000Z,7.277777777777778
2023-03-14T00:39:03.000Z,7.277777777777778
2023-03-14T00:39:33.000Z,7.222222222222222
2023-03-14T00:40:17.000Z,7.222222222222222
2023-03-14T00:40:47.000Z,7.222222222222222
2023-03-14T00:41:13.000Z,7.222222222222222
2023-03-14T00:41:35.000Z,7.222222222222222
2023-03-14T00:41:58.000Z,7.222222222222222
2023-03-14T00:42:33.000Z,7.222222222222222
2023-03-14T00:43:03.000Z,7.222222222222222
2023-03-14T00:43:33.000Z,7.222222222222222
2023-03-14T00:44:08.000Z,7.277777777777778
2023-03-14T00:44:38.000Z,7.277777777777778
2023-03-14T00:45:13.000Z,7.11111111111111
2023-03-14T00:45:34.000Z,7.277777777777778
2023-03-14T00:45:58.000Z,7.277777777777778
2023-03-14T00:46:33.000Z,7.277777777777778
2023-03-14T00:47:03.000Z,7.11111111111111
2023-03-14T00:47:42.000Z,7.277777777777778
2023-03-14T00:48:07.000Z,7.11111111111111
2023-03-14T00:48:33.000Z,7.11111111111111
2023-03-14T00:48:53.000Z,7.11111111111111
2023-03-14T00:49:28.000Z,7.11111111111111
2023-03-14T00:49:58.000Z,7.277777777777778
2023-03-14T00:50:33.000Z,7.277777777777778
2023-03-14T00:51:04.000Z,7.11111111111111
2023-03-14T00:51:33.000Z,7.11111111111111
2023-03-14T00:52:08.000Z,7.11111111111111
2023-03-14T00:52:38.000Z,7.11111111111111
2023-03-14T00:53:13.000Z,7.11111111111111
2023-03-14T00:53:35.000Z,7.11111111111111
2023-03-14T00:53:58.000Z,7.11111111111111
2023-03-14T00:54:33.000Z,7.11111111111111
2023-03-14T00:55:03.000Z,7.222222222222222
2023-03-14T00:55:33.000Z,7.222222222222222
2023-03-14T00:56:09.000Z,7.222222222222222
2023-03-14T00:56:38.000Z,7.222222222222222
2023-03-14T00:57:13.000Z,7.222222222222222
2023-03-14T00:57:34.000Z,7.222222222222222
2023-03-14T00:57:58.000Z,7.222222222222222
2023-03-14T00:58:33.000Z,7.222222222222222
2023-03-14T00:59:03.000Z,7.222222222222222
2023-03-14T00:59:33.000Z,7.222222222222222
2023-03-14T01:00:08.000Z,7.222222222222222
2023-03-14T01:00:39.000Z,7.222222222222222
2023-03-14T01:01:13.000Z,7.222222222222222
2023-03-14T01:01:36.000Z,7.222222222222222
2023-03-14T01:01:56.000Z,7.222222222222222
2023-03-14T01:02:33.000Z,7.222222222222222
2023-03-14T01:03:12.000Z,7.277777777777778
2023-03-14T01:03:42.000Z,7.277777777777778
2023-03-14T01:04:07.000Z,7.277777777777778
2023-03-14T01:04:33.000Z,7.277777777777778
2023-03-14T01:05:02.000Z,7.277777777777778
2023-03-14T01:05:29.000Z,7.11111111111111
2023-03-14T01:05:56.000Z,7.11111111111111
2023-03-14T01:06:33.000Z,7.11111111111111
2023-03-14T01:07:12.000Z,7.11111111111111
2023-03-14T01:07:34.000Z,7.11111111111111
2023-03-14T01:08:08.000Z,7.277777777777778
2023-03-14T01:08:39.000Z,7.277777777777778
2023-03-14T01:09:13.000Z,7.11111111111111
2023-03-14T01:09:34.000Z,7.11111111111111
2023-03-14T01:09:58.000Z,7.277777777777778
2023-03-14T01:10:33.000Z,7.277777777777778
2023-03-14T01:11:03.000Z,7.277777777777778
2023-03-14T01:11:33.000Z,7.277777777777778
2023-03-14T01:12:08.000Z,7.222222222222222
2023-03-14T01:12:38.000Z,7.222222222222222
2023-03-14T01:13:22.000Z,7.000000000000001
2023-03-14T01:13:52.000Z,7.11111111111111
2023-03-14T01:14:13.000Z,7.277777777777778
2023-03-14T01:14:33.000Z,7.277777777777778
2023-03-14T01:15:03.000Z,7.5
2023-03-14T01:15:33.000Z,7.5
2023-03-14T01:16:08.000Z,7.5
2023-03-14T01:16:38.000Z,7.5
2023-03-14T01:17:13.000Z,7.5
2023-03-14T01:17:35.000Z,7.5
2023-03-14T01:17:58.000Z,7.5
2023-03-14T01:18:33.000Z,7.6111111111111125
2023-03-14T01:19:03.000Z,7.6111111111111125
2023-03-14T01:19:33.000Z,7.777777777777778
2023-03-14T01:20:12.000Z,8.0
2023-03-14T01:20:39.000Z,8.0
2023-03-14T01:21:13.000Z,8.222222222222221
2023-03-14T01:21:36.000Z,8.11111111111111
2023-03-14T01:21:58.000Z,8.222222222222221
2023-03-14T01:22:33.000Z,8.11111111111111
2023-03-14T01:23:03.000Z,8.11111111111111
2023-03-14T01:23:33.000Z,8.0
2023-03-14T01:24:08.000Z,8.222222222222221
2023-03-14T01:24:38.000Z,8.222222222222221
2023-03-14T01:25:13.000Z,8.277777777777779
2023-03-14T01:25:35.000Z,8.277777777777779
2023-03-14T01:25:58.000Z,8.222222222222221
2023-03-14T01:26:33.000Z,8.11111111111111
2023-03-14T01:27:03.000Z,8.11111111111111
2023-03-14T01:27:34.000Z,8.11111111111111
2023-03-14T01:28:07.000Z,8.11111111111111
2023-03-14T01:28:33.000Z,8.11111111111111
2023-03-14T01:28:53.000Z,8.11111111111111
2023-03-14T01:29:28.000Z,8.222222222222221
2023-03-14T01:29:58.000Z,8.11111111111111
2023-03-14T01:30:33.000Z,8.11111111111111
2023-03-14T01:31:03.000Z,7.88888888888889
2023-03-14T01:31:33.000Z,8.0
2023-03-14T01:32:08.000Z,8.0
2023-03-14T01:32:38.000Z,7.88888888888889
2023-03-14T01:33:13.000Z,7.777777777777778
2023-03-14T01:33:35.000Z,7.777777777777778
2023-03-14T01:33:58.000Z,8.11111111111111
2023-03-14T01:34:42.000Z,8.0
2023-03-14T01:35:06.000Z,8.0
2023-03-14T01:35:32.000Z,8.0
2023-03-14T01:36:08.000Z,8.0
2023-03-14T01:36:38.000Z,8.0
2023-03-14T01:37:13.000Z,7.88888888888889
2023-03-14T01:37:34.000Z,7.88888888888889
2023-03-14T01:37:58.000Z,7.88888888888889
2023-03-14T01:38:33.000Z,7.88888888888889
2023-03-14T01:39:03.000Z,7.88888888888889
2023-03-14T01:39:33.000Z,7.88888888888889
2023-03-14T01:40:08.000Z,7.6111111111111125
2023-03-14T01:40:38.000Z,7.6111111111111125
2023-03-14T01:41:14.000Z,7.3888888888888875
2023-03-14T01:41:38.000Z,7.3888888888888875
2023-03-14T01:42:00.000Z,7.277777777777778
2023-03-14T01:42:33.000Z,7.277777777777778
2023-03-14T01:43:03.000Z,7.277777777777778
2023-03-14T01:43:33.000Z,7.277777777777778
2023-03-14T01:44:08.000Z,7.277777777777778
2023-03-14T01:44:38.000Z,7.277777777777778
2023-03-14T01:45:13.000Z,7.277777777777778
2023-03-14T01:45:35.000Z,7.277777777777778
2023-03-14T01:45:58.000Z,7.277777777777778
2023-03-14T01:46:33.000Z,7.277777777777778
2023-03-14T01:47:03.000Z,7.3888888888888875
2023-03-14T01:47:33.000Z,7.3888888888888875
2023-03-14T01:48:18.000Z,7.277777777777778
2023-03-14T01:48:48.000Z,7.277777777777778
2023-03-14T01:49:13.000Z,7.277777777777778
2023-03-14T01:49:38.000Z,7.5
2023-03-14T01:50:01.000Z,7.3888888888888875
2023-03-14T01:50:28.000Z,7.3888888888888875
2023-03-14T01:50:54.000Z,7.3888888888888875
2023-03-14T01:51:19.000Z,7.3888888888888875
2023-03-14T01:51:43.000Z,7.3888888888888875
2023-03-14T01:52:07.000Z,7.3888888888888875
2023-03-14T01:52:33.000Z,7.277777777777778
2023-03-14T01:53:02.000Z,7.277777777777778
2023-03-14T01:53:29.000Z,7.277777777777778
2023-03-14T01:53:56.000Z,7.277777777777778
2023-03-14T01:54:33.000Z,7.277777777777778
2023-03-14T01:55:12.000Z,7.277777777777778
2023-03-14T01:55:42.000Z,7.6111111111111125
2023-03-14T01:56:08.000Z,7.6111111111111125
2023-03-14T01:56:38.000Z,7.6111111111111125
2023-03-14T01:57:13.000Z,7.6111111111111125
2023-03-14T01:57:34.000Z,7.5
2023-03-14T01:57:58.000Z,7.5
2023-03-14T01:58:34.000Z,7.5
2023-03-14T01:59:03.000Z,7.222222222222222
2023-03-14T01:59:33.000Z,7.222222222222222
2023-03-14T02:00:08.000Z,7.222222222222222
2023-03-14T02:00:38.000Z,7.222222222222222
2023-03-14T02:01:13.000Z,7.277777777777778
2023-03-14T02:01:34.000Z,7.277777777777778
2023-03-14T02:01:58.000Z,7.277777777777778
2023-03-14T02:02:33.000Z,7.277777777777778
2023-03-14T02:03:03.000Z,7.277777777777778
2023-03-14T02:03:33.000Z,7.277777777777778
2023-03-14T02:04:08.000Z,7.5
2023-03-14T02:04:38.000Z,7.5
2023-03-14T02:05:13.000Z,7.5
2023-03-14T02:05:35.000Z,7.5
2023-03-14T02:05:59.000Z,7.222222222222222
2023-03-14T02:06:33.000Z,7.5
2023-03-14T02:07:03.000Z,7.5
2023-03-14T02:07:34.000Z,7.5
2023-03-14T02:08:08.000Z,7.5
2023-03-14T02:08:33.000Z,7.5
2023-03-14T02:09:02.000Z,7.5
2023-03-14T02:09:29.000Z,7.5
2023-03-14T02:09:56.000Z,7.5
2023-03-14T02:10:23.000Z,7.5
2023-03-14T02:10:49.000Z,7.3888888888888875
2023-03-14T02:11:16.000Z,7.3888888888888875
2023-03-14T02:11:43.000Z,7.3888888888888875
2023-03-14T02:12:08.000Z,7.3888888888888875
2023-03-14T02:12:33.000Z,7.3888888888888875
2023-03-14T02:13:03.000Z,7.3888888888888875
2023-03-14T02:13:29.000Z,7.3888888888888875
2023-03-14T02:13:56.000Z,7.3888888888888875
2023-03-14T02:14:23.000Z,7.3888888888888875
2023-03-14T02:14:49.000Z,7.3888888888888875
2023-03-14T02:15:18.000Z,7.3888888888888875
2023-03-14T02:15:48.000Z,7.3888888888888875
2023-03-14T02:16:08.000Z,7.3888888888888875
2023-03-14T02:16:38.000Z,7.3888888888888875
2023-03-14T02:17:13.000Z,7.3888888888888875
2023-03-14T02:17:34.000Z,7.3888888888888875
2023-03-14T02:17:58.000Z,7.3888888888888875
2023-03-14T02:18:33.000Z,7.3888888888888875
2023-03-14T02:19:03.000Z,7.3888888888888875
2023-03-14T02:19:33.000Z,7.11111111111111
2023-03-14T02:20:08.000Z,7.11111111111111
2023-03-14T02:20:39.000Z,7.11111111111111
2023-03-14T02:21:08.000Z,7.222222222222222
2023-03-14T02:21:38.000Z,7.222222222222222
2023-03-14T02:22:00.000Z,7.222222222222222
2023-03-14T02:22:33.000Z,7.222222222222222
2023-03-14T02:23:03.000Z,7.5
2023-03-14T02:23:34.000Z,7.222222222222222
2023-03-14T02:24:08.000Z,7.222222222222222
2023-03-14T02:24:38.000Z,7.222222222222222
2023-03-14T02:25:13.000Z,7.222222222222222
2023-03-14T02:25:34.000Z,7.222222222222222
2023-03-14T02:25:58.000Z,7.222222222222222
2023-03-14T02:26:34.000Z,7.222222222222222
2023-03-14T02:27:03.000Z,7.222222222222222
2023-03-14T02:27:33.000Z,7.222222222222222
2023-03-14T02:28:18.000Z,7.222222222222222
2023-03-14T02:28:48.000Z,7.222222222222222
2023-03-14T02:29:13.000Z,7.222222222222222
2023-03-14T02:29:38.000Z,7.222222222222222
2023-03-14T02:30:00.000Z,7.222222222222222
2023-03-14T02:30:28.000Z,7.222222222222222
2023-03-14T02:31:03.000Z,7.11111111111111
2023-03-14T02:31:43.000Z,7.222222222222222
2023-03-14T02:32:08.000Z,7.277777777777778
2023-03-14T02:32:38.000Z,7.277777777777778
2023-03-14T02:33:13.000Z,7.277777777777778
2023-03-14T02:33:34.000Z,7.277777777777778
2023-03-14T02:33:58.000Z,7.277777777777778
2023-03-14T02:34:33.000Z,7.277777777777778
2023-03-14T02:35:00.000Z,7.277777777777778
2023-03-14T02:35:18.000Z,7.277777777777778
2023-03-14T02:35:53.000Z,7.277777777777778
2023-03-14T02:36:23.000Z,7.277777777777778
2023-03-14T02:36:48.000Z,7.277777777777778
2023-03-14T02:37:13.000Z,7.277777777777778
2023-03-14T02:37:35.000Z,7.277777777777778
2023-03-14T02:37:58.000Z,7.277777777777778
2023-03-14T02:38:33.000Z,7.277777777777778
2023-03-14T02:39:03.000Z,7.277777777777778
2023-03-14T02:39:33.000Z,7.222222222222222
2023-03-14T02:40:08.000Z,7.277777777777778
2023-03-14T02:40:38.000Z,7.277777777777778
2023-03-14T02:41:13.000Z,7.277777777777778
2023-03-14T02:41:36.000Z,7.277777777777778
2023-03-14T02:41:58.000Z,7.277777777777778
2023-03-14T02:42:33.000Z,7.277777777777778
2023-03-14T02:43:03.000Z,7.277777777777778
2023-03-14T02:43:33.000Z,7.277777777777778
2023-03-14T02:44:08.000Z,7.277777777777778
2023-03-14T02:44:38.000Z,7.277777777777778
2023-03-14T02:45:13.000Z,7.277777777777778
2023-03-14T02:45:34.000Z,7.277777777777778
2023-03-14T02:45:58.000Z,7.277777777777778
2023-03-14T02:46:33.000Z,7.277777777777778
2023-03-14T02:47:03.000Z,7.277777777777778
2023-03-14T02:47:33.000Z,7.277777777777778
2023-03-14T02:48:08.000Z,7.277777777777778
2023-03-14T02:48:38.000Z,7.277777777777778
2023-03-14T02:49:13.000Z,7.277777777777778
2023-03-14T02:49:34.000Z,7.3888888888888875
2023-03-14T02:49:56.000Z,7.3888888888888875
2023-03-14T02:50:33.000Z,7.3888888888888875
2023-03-14T02:51:03.000Z,7.3888888888888875
2023-03-14T02:51:33.000Z,7.3888888888888875
2023-03-14T02:52:08.000Z,7.3888888888888875
2023-03-14T02:52:38.000Z,7.3888888888888875
2023-03-14T02:53:13.000Z,7.3888888888888875
2023-03-14T02:53:34.000Z,7.3888888888888875
2023-03-14T02:53:58.000Z,7.6111111111111125
2023-03-14T02:54:33.000Z,7.6111111111111125
2023-03-14T02:55:03.000Z,7.6111111111111125
2023-03-14T02:55:33.000Z,7.5
2023-03-14T02:56:08.000Z,7.5
2023-03-14T02:56:33.000Z,7.5
2023-03-14T02:56:53.000Z,7.5
2023-03-14T02:57:28.000Z,7.5
2023-03-14T02:57:58.000Z,7.5
2023-03-14T02:58:33.000Z,7.5
2023-03-14T02:59:03.000Z,7.5
2023-03-14T02:59:33.000Z,7.5
2023-03-14T03:00:08.000Z,7.5
2023-03-14T03:00:38.000Z,7.5
2023-03-14T03:01:13.000Z,7.5
2023-03-14T03:01:35.000Z,7.5
2023-03-14T03:01:58.000Z,7.5
2023-03-14T03:02:42.000Z,7.5
2023-03-14T03:03:06.000Z,7.5
2023-03-14T03:03:32.000Z,7.5
2023-03-14T03:04:04.000Z,7.5
2023-03-14T03:04:32.000Z,7.5
2023-03-14T03:05:02.000Z,7.5
2023-03-14T03:05:29.000Z,7.5
2023-03-14T03:05:56.000Z,7.5
2023-03-14T03:06:22.000Z,7.5
2023-03-14T03:06:49.000Z,7.5
2023-03-14T03:07:16.000Z,7.5
2023-03-14T03:07:42.000Z,7.5
2023-03-14T03:08:07.000Z,7.5
2023-03-14T03:08:33.000Z,7.5
2023-03-14T03:09:02.000Z,7.5
2023-03-14T03:09:28.000Z,7.5
2023-03-14T03:09:58.000Z,7.5
2023-03-14T03:10:33.000Z,7.5
2023-03-14T03:11:03.000Z,7.5
2023-03-14T03:11:33.000Z,7.277777777777778
2023-03-14T03:12:08.000Z,7.277777777777778
2023-03-14T03:12:38.000Z,7.277777777777778
2023-03-14T03:13:13.000Z,7.277777777777778
2023-03-14T03:13:34.000Z,7.5
2023-03-14T03:13:58.000Z,7.5
2023-03-14T03:14:33.000Z,7.5
2023-03-14T03:15:12.000Z,7.5
2023-03-14T03:15:42.000Z,7.277777777777778
2023-03-14T03:16:07.000Z,7.277777777777778
2023-03-14T03:16:33.000Z,7.277777777777778
2023-03-14T03:17:02.000Z,7.277777777777778
2023-03-14T03:17:29.000Z,7.277777777777778
2023-03-14T03:17:56.000Z,7.277777777777778
2023-03-14T03:18:13.000Z,7.277777777777778
2023-03-14T03:18:33.000Z,7.277777777777778
2023-03-14T03:19:03.000Z,7.277777777777778
2023-03-14T03:19:33.000Z,7.277777777777778
2023-03-14T03:20:08.000Z,7.277777777777778
2023-03-14T03:20:38.000Z,7.277777777777778
2023-03-14T03:21:13.000Z,7.277777777777778
2023-03-14T03:21:34.000Z,7.222222222222222
2023-03-14T03:21:58.000Z,7.222222222222222
2023-03-14T03:22:33.000Z,7.222222222222222
2023-03-14T03:23:03.000Z,7.277777777777778
2023-03-14T03:23:33.000Z,7.277777777777778
2023-03-14T03:24:08.000Z,7.277777777777778
2023-03-14T03:24:47.000Z,7.277777777777778
2023-03-14T03:25:12.000Z,7.3888888888888875
2023-03-14T03:25:37.000Z,7.222222222222222
2023-03-14T03:26:00.000Z,7.222222222222222
2023-03-14T03:26:28.000Z,7.222222222222222
2023-03-14T03:27:03.000Z,7.3888888888888875
2023-03-14T03:27:42.000Z,7.3888888888888875
2023-03-14T03:28:08.000Z,7.222222222222222
2023-03-14T03:28:38.000Z,7.222222222222222
2023-03-14T03:29:13.000Z,7.222222222222222
2023-03-14T03:29:35.000Z,7.222222222222222
2023-03-14T03:29:58.000Z,7.277777777777778
2023-03-14T03:30:33.000Z,7.277777777777778
2023-03-14T03:31:03.000Z,7.277777777777778
2023-03-14T03:31:33.000Z,7.277777777777778
2023-03-14T03:32:08.000Z,7.277777777777778
2023-03-14T03:32:38.000Z,7.277777777777778
2023-03-14T03:33:13.000Z,7.222222222222222
2023-03-14T03:33:44.000Z,7.222222222222222
2023-03-14T03:34:18.000Z,7.222222222222222
2023-03-14T03:34:35.000Z,7.222222222222222
2023-03-14T03:35:02.000Z,7.222222222222222
2023-03-14T03:35:38.000Z,7.277777777777778
2023-03-14T03:36:04.000Z,7.222222222222222
2023-03-14T03:36:32.000Z,7.222222222222222
2023-03-14T03:37:03.000Z,7.222222222222222
2023-03-14T03:37:29.000Z,7.222222222222222
2023-03-14T03:37:56.000Z,7.222222222222222
2023-03-14T03:38:23.000Z,7.222222222222222
2023-03-14T03:38:49.000Z,7.277777777777778
2023-03-14T03:39:18.000Z,7.277777777777778
2023-03-14T03:40:08.000Z,7.277777777777778
2023-03-14T03:40:38.000Z,7.277777777777778
2023-03-14T03:41:13.000Z,7.277777777777778
2023-03-14T03:41:34.000Z,7.277777777777778
2023-03-14T03:41:58.000Z,7.277777777777778
2023-03-14T03:42:33.000Z,7.277777777777778
2023-03-14T03:43:03.000Z,7.277777777777778
2023-03-14T03:43:33.000Z,7.277777777777778
2023-03-14T03:44:08.000Z,7.277777777777778
2023-03-14T03:44:38.000Z,7.277777777777778
2023-03-14T03:45:13.000Z,7.11111111111111
2023-03-14T03:45:36.000Z,7.11111111111111
2023-03-14T03:45:56.000Z,7.222222222222222
2023-03-14T03:46:23.000Z,7.222222222222222
2023-03-14T03:46:49.000Z,7.222222222222222
2023-03-14T03:47:16.000Z,7.222222222222222
2023-03-14T03:47:43.000Z,7.222222222222222
2023-03-14T03:48:08.000Z,7.222222222222222
2023-03-14T03:48:38.000Z,7.3888888888888875
2023-03-14T03:49:13.000Z,7.3888888888888875
2023-03-14T03:49:34.000Z,7.222222222222222
2023-03-14T03:49:58.000Z,7.222222222222222
2023-03-14T03:50:33.000Z,7.222222222222222
2023-03-14T03:51:03.000Z,7.222222222222222
2023-03-14T03:51:33.000Z,7.222222222222222
2023-03-14T03:52:08.000Z,7.222222222222222
2023-03-14T03:52:38.000Z,7.222222222222222
2023-03-14T03:53:13.000Z,7.11111111111111
2023-03-14T03:53:35.000Z,7.11111111111111
2023-03-14T03:53:58.000Z,7.11111111111111
2023-03-14T03:54:33.000Z,7.11111111111111
2023-03-14T03:55:13.000Z,7.222222222222222
2023-03-14T03:55:43.000Z,7.222222222222222
2023-03-14T03:56:08.000Z,7.222222222222222
2023-03-14T03:56:38.000Z,7.11111111111111
2023-03-14T03:57:13.000Z,7.11111111111111
2023-03-14T03:57:34.000Z,7.11111111111111
2023-03-14T03:57:58.000Z,7.11111111111111
2023-03-14T03:58:33.000Z,7.11111111111111
2023-03-14T03:59:03.000Z,7.222222222222222
2023-03-14T03:59:34.000Z,7.222222222222222
2023-03-14T04:00:08.000Z,7.222222222222222
2023-03-14T04:00:38.000Z,7.222222222222222
2023-03-14T04:01:13.000Z,7.222222222222222
2023-03-14T04:01:34.000Z,7.222222222222222
2023-03-14T04:01:59.000Z,7.222222222222222
2023-03-14T04:02:33.000Z,7.222222222222222
2023-03-14T04:03:13.000Z,7.3888888888888875
2023-03-14T04:03:43.000Z,7.3888888888888875
2023-03-14T04:04:08.000Z,7.222222222222222
2023-03-14T04:04:33.000Z,7.222222222222222
2023-03-14T04:05:03.000Z,7.222222222222222
2023-03-14T04:05:29.000Z,7.3888888888888875
2023-03-14T04:05:58.000Z,7.3888888888888875
2023-03-14T04:06:33.000Z,7.3888888888888875
2023-03-14T04:07:03.000Z,7.3888888888888875
2023-03-14T04:07:33.000Z,7.3888888888888875
2023-03-14T04:08:08.000Z,7.3888888888888875
2023-03-14T04:08:38.000Z,7.3888888888888875
2023-03-14T04:09:13.000Z,7.5
2023-03-14T04:09:34.000Z,7.5
2023-03-14T04:09:58.000Z,7.3888888888888875
2023-03-14T04:10:33.000Z,7.3888888888888875
2023-03-14T04:11:03.000Z,7.6111111111111125
2023-03-14T04:11:38.000Z,7.5
2023-03-14T04:12:04.000Z,7.5
2023-03-14T04:12:23.000Z,7.5
2023-03-14T04:12:38.000Z,7.277777777777778
2023-03-14T04:13:13.000Z,7.277777777777778
2023-03-14T04:13:34.000Z,7.277777777777778
2023-03-14T04:13:58.000Z,7.5
2023-03-14T04:14:33.000Z,7.5
2023-03-14T04:15:03.000Z,7.5
2023-03-14T04:15:34.000Z,7.5
2023-03-14T04:16:08.000Z,7.5
2023-03-14T04:16:38.000Z,7.5
2023-03-14T04:17:13.000Z,7.5
2023-03-14T04:17:34.000Z,7.5
2023-03-14T04:18:08.000Z,7.5
2023-03-14T04:18:34.000Z,7.5
2023-03-14T04:19:00.000Z,7.5
2023-03-14T04:19:28.000Z,7.5
2023-03-14T04:20:02.000Z,7.3888888888888875
2023-03-14T04:20:24.000Z,7.3888888888888875
2023-03-14T04:20:53.000Z,7.6111111111111125
2023-03-14T04:21:24.000Z,7.6111111111111125
2023-03-14T04:21:53.000Z,7.5
2023-03-14T04:22:23.000Z,7.5
2023-03-14T04:22:49.000Z,7.5
2023-03-14T04:23:18.000Z,7.5
2023-03-14T04:23:43.000Z,7.5
2023-03-14T04:24:08.000Z,7.277777777777778
2023-03-14T04:24:38.000Z,7.277777777777778
2023-03-14T04:25:13.000Z,7.277777777777778
2023-03-14T04:25:34.000Z,7.277777777777778
2023-03-14T04:25:58.000Z,7.277777777777778
2023-03-14T04:26:33.000Z,7.277777777777778
2023-03-14T04:27:03.000Z,7.277777777777778
2023-03-14T04:27:33.000Z,7.277777777777778
2023-03-14T04:28:08.000Z,7.277777777777778
2023-03-14T04:28:38.000Z,7.277777777777778
2023-03-14T04:29:13.000Z,7.277777777777778
2023-03-14T04:29:35.000Z,7.277777777777778
2023-03-14T04:29:58.000Z,7.277777777777778
2023-03-14T04:30:33.000Z,7.222222222222222
2023-03-14T04:31:03.000Z,7.222222222222222
2023-03-14T04:31:33.000Z,7.222222222222222
2023-03-14T04:32:08.000Z,7.000000000000001
2023-03-14T04:32:38.000Z,7.222222222222222
2023-03-14T04:33:13.000Z,7.222222222222222
2023-03-14T04:33:34.000Z,7.222222222222222
2023-03-14T04:33:58.000Z,7.222222222222222
2023-03-14T04:34:33.000Z,7.222222222222222
2023-03-14T04:35:03.000Z,7.222222222222222
2023-03-14T04:35:33.000Z,7.222222222222222
2023-03-14T04:36:08.000Z,7.11111111111111
2023-03-14T04:36:33.000Z,7.11111111111111
2023-03-14T04:37:03.000Z,7.11111111111111
2023-03-14T04:37:29.000Z,7.11111111111111
2023-03-14T04:37:56.000Z,7.11111111111111
2023-03-14T04:38:23.000Z,7.11111111111111
2023-03-14T04:38:49.000Z,7.11111111111111
2023-03-14T04:39:16.000Z,7.11111111111111
2023-03-14T04:39:43.000Z,7.11111111111111
2023-03-14T04:40:08.000Z,7.11111111111111
2023-03-14T04:40:33.000Z,7.11111111111111
2023-03-14T04:40:53.000Z,7.11111111111111
2023-03-14T04:41:28.000Z,7.000000000000001
2023-03-14T04:41:58.000Z,7.11111111111111
2023-03-14T04:42:33.000Z,7.11111111111111
2023-03-14T04:43:03.000Z,7.11111111111111
2023-03-14T04:43:33.000Z,7.11111111111111
2023-03-14T04:44:08.000Z,7.11111111111111
2023-03-14T04:44:38.000Z,7.11111111111111
2023-03-14T04:45:14.000Z,7.000000000000001
2023-03-14T04:45:34.000Z,7.000000000000001
2023-03-14T04:45:58.000Z,7.277777777777778
2023-03-14T04:46:42.000Z,7.277777777777778
2023-03-14T04:47:05.000Z,7.277777777777778
2023-03-14T04:47:32.000Z,7.277777777777778
2023-03-14T04:48:04.000Z,7.222222222222222